Time;durP1;ratioP1;P1;durP2;ratioP2;P2;SDS_P1;SDS_P2;PMS_P1;PMS_P2;Temp;Humidity;BMP_temperature;BMP_pressure;BME280_temperature;BME280_humidity;BME280_pressure;Samples;Min_cycle;Max_cycle;Signal;HPM_P1;HPM_P2
2022/11/11 00:01:09;;;;;;;0.40;0.40;;;18.10;99.90;;;;;;5092556;28;20244;-69
2022/11/11 00:03:59;;;;;;;0.40;0.40;;;18.10;99.90;;;;;;5094678;28;20660;-72
2022/11/11 00:06:47;;;;;;;0.40;0.40;;;18.10;99.90;;;;;;5094285;28;20289;-70
2022/11/11 00:09:35;;;;;;;0.40;0.40;;;18.10;99.90;;;;;;5093088;28;20640;-69
2022/11/11 00:12:23;;;;;;;0.40;0.40;;;18.10;99.90;;;;;;5092565;28;20222;-70
2022/11/11 00:15:14;;;;;;;0.40;0.40;;;18.10;99.90;;;;;;5093221;28;20488;-71
2022/11/11 00:27:30;;;;;;;0.40;0.40;;;18.10;99.90;;;;;;5093356;28;20210;-70
2022/11/11 00:30:18;;;;;;;1.48;1.42;;;18.10;99.90;;;;;;5092876;28;20273;-70
2022/11/11 00:33:06;;;;;;;0.40;0.40;;;18.10;99.90;;;;;;5093105;28;20581;-69
2022/11/11 00:35:54;;;;;;;0.40;0.40;;;18.00;99.90;;;;;;5092375;28;20743;-69
2022/11/11 00:38:46;;;;;;;0.40;0.40;;;18.10;99.90;;;;;;5094060;28;20694;-70
2022/11/11 00:41:34;;;;;;;0.40;0.40;;;18.10;99.90;;;;;;5093253;28;20573;-70
2022/11/11 00:44:23;;;;;;;0.40;0.40;;;18.00;99.90;;;;;;5093950;28;20192;-70
2022/11/11 00:53:26;;;;;;;0.40;0.40;;;18.00;99.90;;;;;;5092954;28;20196;-69
2022/11/11 00:56:16;;;;;;;0.40;0.40;;;18.00;99.90;;;;;;5093523;28;20196;-70
2022/11/11 00:59:04;;;;;;;0.40;0.40;;;18.00;99.90;;;;;;5093328;28;20215;-67
2022/11/11 01:01:52;;;;;;;0.40;0.40;;;18.00;99.90;;;;;;5091696;28;20212;-72
2022/11/11 01:04:40;;;;;;;0.40;0.40;;;18.00;99.90;;;;;;5093511;28;20200;-68
2022/11/11 01:07:29;;;;;;;0.40;0.40;;;18.00;99.90;;;;;;5093445;28;20279;-68
2022/11/11 01:10:37;;;;;;;0.40;0.40;;;18.00;99.90;;;;;;5092684;28;20211;-67
2022/11/11 01:13:28;;;;;;;0.40;0.40;;;18.00;99.90;;;;;;5092465;28;20614;-68
2022/11/11 01:16:18;;;;;;;0.40;0.40;;;18.00;99.90;;;;;;5093084;28;20204;-71
2022/11/11 01:19:06;;;;;;;0.40;0.40;;;18.00;99.90;;;;;;5093405;28;20195;-69
2022/11/11 01:21:54;;;;;;;0.40;0.40;;;18.00;99.90;;;;;;5092786;28;20228;-70
2022/11/11 01:24:42;;;;;;;0.40;0.40;;;18.00;99.90;;;;;;5091554;28;20219;-69
2022/11/11 01:27:33;;;;;;;0.40;0.40;;;18.00;99.90;;;;;;5093394;28;20200;-70
2022/11/11 01:30:23;;;;;;;0.40;0.40;;;17.90;99.90;;;;;;5092033;28;20622;-70
2022/11/11 01:33:12;;;;;;;0.40;0.40;;;17.90;99.90;;;;;;5093298;28;20204;-70
2022/11/11 01:36:08;;;;;;;0.40;0.40;;;17.90;99.90;;;;;;5092710;28;20203;-69
2022/11/11 01:38:58;;;;;;;0.40;0.40;;;17.90;99.90;;;;;;5091739;28;20187;-70
2022/11/11 01:41:46;;;;;;;0.40;0.40;;;17.90;99.90;;;;;;5092415;28;20289;-70
2022/11/11 01:44:45;;;;;;;0.40;0.40;;;17.90;99.90;;;;;;5092452;28;20200;-70
2022/11/11 01:50:58;;;;;;;0.40;0.40;;;17.90;99.90;;;;;;5091278;28;20246;-69
2022/11/11 01:53:52;;;;;;;0.40;0.40;;;17.90;99.90;;;;;;5092837;28;20200;-68
2022/11/11 01:56:40;;;;;;;0.40;0.40;;;17.90;99.90;;;;;;5092086;28;20306;-70
2022/11/11 01:59:31;;;;;;;0.40;0.40;;;17.90;99.90;;;;;;5090594;28;20222;-70
2022/11/11 02:02:23;;;;;;;0.40;0.40;;;17.90;99.90;;;;;;5091468;28;20215;-67
2022/11/11 02:08:31;;;;;;;0.40;0.40;;;17.90;99.90;;;;;;5091628;28;20319;-69
2022/11/11 02:14:37;;;;;;;0.40;0.40;;;17.90;99.90;;;;;;5091706;28;20302;-67
2022/11/11 02:17:27;;;;;;;0.40;0.40;;;17.90;99.90;;;;;;5093094;28;20203;-68
2022/11/11 02:20:20;;;;;;;0.40;0.40;;;17.70;99.50;;;;;;5092173;28;20196;-70
2022/11/11 02:23:12;;;;;;;0.40;0.40;;;17.80;99.80;;;;;;5091751;28;20203;-68
2022/11/11 02:26:04;;;;;;;0.40;0.40;;;17.80;99.90;;;;;;5092311;28;20280;-69
2022/11/11 02:28:53;;;;;;;0.40;0.40;;;17.80;99.90;;;;;;5090962;28;20281;-68
2022/11/11 02:31:41;;;;;;;0.40;0.40;;;17.80;99.90;;;;;;5092606;28;20227;-69
2022/11/11 02:34:31;;;;;;;0.40;0.40;;;17.80;99.80;;;;;;5092112;28;20239;-69
2022/11/11 02:37:22;;;;;;;0.40;0.40;;;17.80;99.90;;;;;;5091646;28;20579;-68
2022/11/11 02:40:12;;;;;;;0.40;0.40;;;17.80;99.70;;;;;;5092036;28;20696;-69
2022/11/11 02:43:01;;;;;;;0.40;0.40;;;17.80;99.80;;;;;;5093032;28;20579;-69
2022/11/11 02:45:49;;;;;;;0.40;0.40;;;17.80;99.90;;;;;;5078715;28;20242;-68
2022/11/11 02:48:38;;;;;;;0.40;0.40;;;17.80;99.90;;;;;;5091933;28;20200;-67
2022/11/11 02:51:26;;;;;;;0.40;0.40;;;17.80;99.90;;;;;;5091621;28;20251;-68
2022/11/11 02:54:14;;;;;;;0.40;0.40;;;17.80;99.90;;;;;;5091865;28;20204;-69
2022/11/11 02:57:08;;;;;;;0.40;0.40;;;17.80;99.90;;;;;;5092004;28;20200;-69
2022/11/11 02:59:59;;;;;;;0.40;0.40;;;17.80;99.90;;;;;;5091189;28;20199;-69
2022/11/11 03:02:48;;;;;;;0.40;0.40;;;17.80;99.90;;;;;;5092322;28;20200;-69
2022/11/11 03:05:36;;;;;;;0.40;0.40;;;17.80;99.80;;;;;;5091345;28;20200;-70
2022/11/11 03:08:24;;;;;;;0.40;0.40;;;17.80;99.80;;;;;;5092045;28;20234;-67
2022/11/11 03:11:12;;;;;;;0.40;0.40;;;17.70;99.70;;;;;;5091294;28;20235;-69
2022/11/11 03:14:01;;;;;;;0.40;0.40;;;17.80;99.80;;;;;;5091347;28;20204;-68
2022/11/11 03:21:03;;;;;;;0.40;0.40;;;17.70;99.80;;;;;;5091456;28;20192;-69
2022/11/11 03:23:07;;;;;;;0.40;0.40;;;17.70;99.80;;;;;;5093871;28;20213;-68
2022/11/11 03:25:55;;;;;;;0.60;0.60;;;17.70;99.80;;;;;;5095101;28;20197;-69
2022/11/11 03:28:45;;;;;;;0.40;0.40;;;17.70;99.80;;;;;;5095235;28;20208;-69
2022/11/11 03:31:33;;;;;;;0.40;0.40;;;17.70;99.90;;;;;;5094639;28;20234;-70
2022/11/11 03:34:22;;;;;;;0.40;0.40;;;17.70;99.80;;;;;;5094619;28;20278;-69
2022/11/11 03:40:17;;;;;;;0.40;0.40;;;17.70;99.70;;;;;;5095532;28;20200;-69
2022/11/11 03:43:06;;;;;;;0.40;0.40;;;17.70;99.90;;;;;;5094942;28;20275;-67
2022/11/11 03:45:56;;;;;;;0.40;0.40;;;17.70;99.80;;;;;;5095385;28;20316;-70
2022/11/11 03:48:44;;;;;;;0.40;0.40;;;17.70;99.80;;;;;;5094376;28;20299;-68
2022/11/11 03:51:33;;;;;;;0.40;0.40;;;17.70;99.80;;;;;;5095133;28;20313;-70
2022/11/11 03:54:21;;;;;;;0.40;0.40;;;17.70;99.80;;;;;;5094876;28;20210;-71
2022/11/11 04:00:17;;;;;;;1.10;1.10;;;17.70;99.90;;;;;;5094710;28;20274;-67
2022/11/11 04:12:27;;;;;;;0.40;0.40;;;17.70;99.80;;;;;;5095316;28;20810;-70
2022/11/11 04:21:42;;;;;;;0.40;0.40;;;17.60;99.70;;;;;;5094940;28;20370;-69
2022/11/11 04:27:42;;;;;;;0.40;0.40;;;17.60;99.70;;;;;;5094737;28;20207;-67
2022/11/11 04:30:29;;;;;;;0.40;0.40;;;17.60;99.70;;;;;;5094157;28;20227;-67
2022/11/11 04:33:17;;;;;;;0.40;0.40;;;17.60;99.70;;;;;;5093663;28;20200;-68
2022/11/11 04:36:05;;;;;;;0.40;0.40;;;17.60;99.60;;;;;;5094062;28;20588;-67
2022/11/11 04:42:00;;;;;;;0.40;0.40;;;17.60;99.80;;;;;;5093861;28;20223;-67
2022/11/11 04:48:03;;;;;;;0.40;0.40;;;17.60;99.80;;;;;;5094200;28;20257;-67
2022/11/11 04:50:52;;;;;;;0.40;0.40;;;17.60;99.60;;;;;;5093371;28;20220;-67
2022/11/11 04:53:40;;;;;;;0.35;0.35;;;17.60;99.80;;;;;;5093245;28;20278;-68
2022/11/11 04:59:35;;;;;;;0.40;0.40;;;17.60;99.80;;;;;;5093802;28;20231;-67
2022/11/11 05:08:54;;;;;;;0.40;0.40;;;17.60;99.70;;;;;;5093260;28;20728;-67
2022/11/11 05:08:58;;;;;;;0.40;0.40;;;17.60;99.80;;;;;;5093471;28;20704;-69
2022/11/11 05:11:46;;;;;;;0.40;0.40;;;17.60;99.70;;;;;;5092954;28;20219;-68
2022/11/11 05:27:11;;;;;;;0.40;0.40;;;17.60;99.70;;;;;;5093545;28;20282;-68
2022/11/11 05:30:01;;;;;;;0.40;0.40;;;17.60;99.70;;;;;;5092622;28;20452;-68
2022/11/11 05:32:49;;;;;;;0.40;0.40;;;17.50;99.40;;;;;;5092832;28;20200;-69
2022/11/11 05:35:37;;;;;;;0.40;0.40;;;17.50;99.60;;;;;;5093600;28;20200;-68
2022/11/11 05:38:25;;;;;;;0.40;0.40;;;17.50;99.60;;;;;;5092883;28;20207;-69
2022/11/11 05:41:13;;;;;;;0.40;0.40;;;17.50;99.90;;;;;;5092897;28;20272;-69
2022/11/11 05:44:01;;;;;;;0.40;0.40;;;17.50;99.70;;;;;;5092642;28;20226;-67
2022/11/11 05:46:50;;;;;;;0.40;0.40;;;17.50;99.50;;;;;;5092178;28;20288;-67
2022/11/11 05:49:38;;;;;;;0.40;0.40;;;17.50;99.70;;;;;;5091970;28;20196;-68
2022/11/11 05:52:26;;;;;;;0.40;0.40;;;17.50;99.70;;;;;;5092685;28;20216;-67
2022/11/11 05:55:14;;;;;;;0.40;0.40;;;17.50;99.60;;;;;;5092253;28;20283;-67
2022/11/11 05:58:03;;;;;;;0.40;0.40;;;17.50;99.60;;;;;;5092778;28;20312;-68
2022/11/11 06:00:51;;;;;;;1.67;1.67;;;17.50;99.40;;;;;;5092355;28;20240;-67
2022/11/11 06:03:40;;;;;;;0.40;0.40;;;17.50;99.40;;;;;;5092594;28;20208;-68
2022/11/11 06:06:28;;;;;;;0.40;0.40;;;17.50;99.50;;;;;;5092907;28;20318;-67
2022/11/11 06:09:17;;;;;;;0.40;0.40;;;17.50;99.40;;;;;;5091901;28;20199;-67
2022/11/11 06:12:05;;;;;;;0.40;0.40;;;17.50;99.40;;;;;;5092459;28;20224;-66
2022/11/11 06:14:53;;;;;;;0.40;0.40;;;17.50;99.50;;;;;;5092527;28;20283;-66
2022/11/11 06:17:41;;;;;;;0.40;0.40;;;17.50;99.50;;;;;;5091185;28;20218;-68
2022/11/11 06:20:30;;;;;;;0.40;0.40;;;17.50;99.40;;;;;;5091592;28;20216;-67
2022/11/11 06:23:18;;;;;;;0.40;0.40;;;17.50;99.50;;;;;;5092107;28;20192;-67
2022/11/11 06:26:12;;;;;;;0.40;0.40;;;17.50;99.40;;;;;;5092003;28;20200;-68
2022/11/11 06:29:02;;;;;;;0.40;0.40;;;17.40;99.30;;;;;;5091933;28;20259;-68
2022/11/11 06:31:50;;;;;;;0.40;0.40;;;17.40;99.40;;;;;;5092273;28;20228;-67
2022/11/11 06:34:38;;;;;;;0.40;0.40;;;17.50;99.50;;;;;;5092015;28;20230;-67
2022/11/11 06:37:28;;;;;;;0.40;0.40;;;17.50;99.60;;;;;;5092082;28;20196;-68
2022/11/11 06:40:16;;;;;;;0.40;0.40;;;17.50;99.50;;;;;;5092139;28;20211;-67
2022/11/11 06:43:09;;;;;;;0.40;0.40;;;17.50;99.60;;;;;;5091376;28;20204;-67
2022/11/11 06:45:57;;;;;;;0.40;0.40;;;17.50;99.50;;;;;;5092066;28;20283;-67
2022/11/11 06:48:45;;;;;;;0.40;0.40;;;17.50;99.40;;;;;;5091209;28;20329;-67
2022/11/11 06:51:33;;;;;;;0.40;0.40;;;17.50;99.60;;;;;;5091728;28;20298;-68
2022/11/11 06:54:22;;;;;;;0.40;0.40;;;17.50;99.60;;;;;;5092003;28;20621;-68
2022/11/11 06:57:10;;;;;;;0.40;0.40;;;17.50;99.40;;;;;;5091838;28;20285;-67
2022/11/11 06:59:58;;;;;;;0.40;0.40;;;17.50;99.50;;;;;;5096018;28;20326;-67
2022/11/11 07:02:47;;;;;;;0.40;0.40;;;17.50;99.50;;;;;;5092264;28;20553;-68
2022/11/11 07:05:35;;;;;;;0.40;0.40;;;17.50;99.50;;;;;;5094782;28;20736;-69
2022/11/11 07:08:23;;;;;;;0.40;0.40;;;17.50;99.50;;;;;;5095823;28;20330;-68
2022/11/11 07:11:14;;;;;;;0.40;0.40;;;17.50;99.60;;;;;;5092707;28;20224;-68
2022/11/11 07:14:06;;;;;;;0.40;0.40;;;17.50;99.60;;;;;;5094837;28;20211;-68
2022/11/11 07:16:54;;;;;;;0.60;0.60;;;17.50;99.50;;;;;;5095959;28;20210;-68
2022/11/11 07:19:42;;;;;;;0.40;0.40;;;17.50;99.50;;;;;;5095471;28;20287;-68
2022/11/11 07:22:30;;;;;;;0.40;0.40;;;17.50;99.50;;;;;;5095992;28;20203;-67
2022/11/11 07:25:24;;;;;;;0.40;0.40;;;17.50;99.50;;;;;;5096719;28;20610;-69
2022/11/11 07:28:14;;;;;;;0.40;0.40;;;17.50;99.30;;;;;;5094211;28;20673;-68
2022/11/11 07:31:02;;;;;;;0.40;0.40;;;17.50;99.60;;;;;;5095298;28;20234;-69
2022/11/11 07:33:50;;;;;;;0.40;0.40;;;17.50;99.50;;;;;;5095154;28;20228;-67
2022/11/11 07:36:38;;;;;;;0.43;0.43;;;17.50;99.60;;;;;;5096211;28;20775;-68
2022/11/11 07:39:26;;;;;;;0.40;0.40;;;17.60;99.50;;;;;;5094573;28;20200;-69
2022/11/11 07:42:15;;;;;;;0.40;0.40;;;17.60;99.70;;;;;;5094654;28;20227;-68
2022/11/11 07:45:19;;;;;;;0.40;0.40;;;17.60;99.80;;;;;;5094937;28;20288;-68
2022/11/11 07:48:07;;;;;;;0.40;0.40;;;17.60;99.70;;;;;;5094626;28;20283;-69
2022/11/11 07:50:55;;;;;;;0.40;0.40;;;17.60;99.70;;;;;;5094118;28;20768;-69
2022/11/11 07:53:44;;;;;;;0.40;0.40;;;17.70;99.60;;;;;;5095142;28;20192;-69
2022/11/11 07:56:32;;;;;;;0.40;0.40;;;17.70;99.70;;;;;;5094093;28;20350;-69
2022/11/11 07:59:20;;;;;;;0.40;0.40;;;17.70;99.80;;;;;;5093366;28;20202;-70
2022/11/11 08:02:10;;;;;;;0.40;0.40;;;17.80;99.70;;;;;;5093596;28;20791;-69
2022/11/11 08:04:58;;;;;;;0.40;0.40;;;17.80;99.60;;;;;;5094600;28;20287;-67
2022/11/11 08:07:47;;;;;;;0.40;0.40;;;17.70;99.70;;;;;;5075197;28;20281;-68
2022/11/11 08:10:35;;;;;;;0.50;0.50;;;17.70;99.60;;;;;;5073515;28;20216;-70
2022/11/11 08:13:42;;;;;;;0.40;0.40;;;17.70;99.70;;;;;;5073804;28;20286;-68
2022/11/11 08:16:30;;;;;;;0.40;0.40;;;17.70;99.50;;;;;;5074979;28;20279;-67
2022/11/11 08:19:19;;;;;;;0.40;0.40;;;17.80;99.60;;;;;;5073963;28;20279;-69
2022/11/11 08:22:07;;;;;;;0.40;0.40;;;17.70;99.60;;;;;;5074108;28;20354;-68
2022/11/11 08:24:55;;;;;;;0.40;0.40;;;17.80;99.80;;;;;;5073041;28;20282;-69
2022/11/11 08:27:57;;;;;;;0.40;0.40;;;17.80;99.70;;;;;;5074119;28;20580;-69
2022/11/11 08:30:45;;;;;;;0.40;0.40;;;17.80;99.60;;;;;;5073570;28;20226;-68
2022/11/11 08:33:33;;;;;;;0.40;0.40;;;17.80;99.60;;;;;;5074156;28;20223;-72
2022/11/11 08:36:25;;;;;;;0.40;0.40;;;17.90;99.60;;;;;;5072844;28;20228;-69
2022/11/11 08:39:13;;;;;;;0.40;0.40;;;17.80;99.60;;;;;;5073630;28;20276;-68
2022/11/11 08:42:01;;;;;;;0.50;0.50;;;17.90;99.60;;;;;;5073289;28;20329;-70
2022/11/11 08:44:50;;;;;;;0.40;0.40;;;17.90;99.50;;;;;;5073081;28;20327;-69
2022/11/11 08:47:39;;;;;;;0.40;0.40;;;17.80;99.70;;;;;;5073297;28;20657;-69
2022/11/11 08:50:27;;;;;;;0.40;0.40;;;17.80;99.50;;;;;;5072419;28;20216;-68
2022/11/11 08:53:16;;;;;;;0.40;0.40;;;17.90;99.60;;;;;;5073001;28;20231;-69
2022/11/11 08:56:05;;;;;;;0.40;0.40;;;17.90;99.70;;;;;;5072604;28;20200;-68
2022/11/11 08:58:53;;;;;;;0.40;0.40;;;17.90;99.60;;;;;;5093144;28;20273;-71
2022/11/11 09:01:41;;;;;;;0.40;0.40;;;18.00;99.70;;;;;;5092410;28;20296;-69
2022/11/11 09:04:29;;;;;;;0.40;0.40;;;17.90;99.70;;;;;;5091711;28;20241;-69
2022/11/11 09:07:32;;;;;;;0.40;0.40;;;17.90;99.70;;;;;;5093255;28;20280;-69
2022/11/11 09:10:22;;;;;;;0.40;0.40;;;17.90;99.30;;;;;;5088791;28;20203;-69
2022/11/11 09:13:10;;;;;;;0.40;0.40;;;17.90;99.40;;;;;;5091982;28;20757;-71
2022/11/11 09:15:58;;;;;;;0.40;0.40;;;17.90;99.90;;;;;;5077862;28;20199;-69
2022/11/11 09:18:46;;;;;;;0.40;0.40;;;17.90;99.60;;;;;;5090563;28;20260;-69
2022/11/11 09:21:34;;;;;;;0.40;0.40;;;18.00;99.70;;;;;;5090829;28;20228;-69
2022/11/11 09:24:23;;;;;;;0.40;0.40;;;18.00;99.60;;;;;;5095438;28;20252;-68
2022/11/11 09:27:12;;;;;;;0.40;0.40;;;18.00;99.60;;;;;;5088083;28;20196;-69
2022/11/11 09:30:00;;;;;;;0.40;0.40;;;18.00;99.50;;;;;;5076355;28;20257;-71
2022/11/11 09:32:48;;;;;;;0.40;0.40;;;18.00;99.60;;;;;;5090561;28;20752;-70
2022/11/11 09:35:36;;;;;;;0.40;0.40;;;18.00;99.60;;;;;;5091033;28;20278;-69
2022/11/11 09:38:24;;;;;;;0.40;0.40;;;18.00;99.60;;;;;;5081421;28;20250;-72
2022/11/11 09:41:19;;;;;;;0.40;0.40;;;18.10;99.70;;;;;;5090616;28;20212;-72
2022/11/11 09:44:25;;;;;;;0.40;0.40;;;18.00;99.50;;;;;;5078771;28;20196;-69
2022/11/11 09:47:20;;;;;;;0.40;0.40;;;18.00;99.50;;;;;;5091151;28;20619;-68
2022/11/11 09:50:12;;;;;;;0.40;0.40;;;18.10;99.50;;;;;;5081337;28;20231;-70
2022/11/11 09:53:04;;;;;;;0.40;0.40;;;18.10;99.50;;;;;;5090898;28;20219;-69
2022/11/11 09:55:58;;;;;;;0.40;0.40;;;18.10;99.60;;;;;;5090535;28;20200;-71
2022/11/11 09:58:50;;;;;;;0.40;0.40;;;18.20;99.60;;;;;;5084194;28;20188;-71
2022/11/11 10:01:42;;;;;;;0.40;0.40;;;18.10;99.60;;;;;;5090135;28;20261;-72
2022/11/11 10:04:34;;;;;;;0.40;0.40;;;18.10;99.60;;;;;;5090777;28;20309;-68
2022/11/11 10:07:28;;;;;;;0.40;0.40;;;18.10;99.60;;;;;;5085601;28;20326;-70
2022/11/11 10:10:30;;;;;;;0.40;0.40;;;18.10;99.30;;;;;;5087655;28;20201;-68
2022/11/11 10:13:23;;;;;;;0.40;0.40;;;18.10;99.60;;;;;;5089549;28;20306;-70
2022/11/11 10:16:23;;;;;;;0.40;0.40;;;18.10;99.60;;;;;;5074978;28;20198;-70
2022/11/11 10:19:24;;;;;;;0.40;0.40;;;18.10;99.60;;;;;;5090878;28;20208;-70
2022/11/11 10:22:20;;;;;;;0.40;0.40;;;18.10;99.50;;;;;;5082422;28;20222;-69
2022/11/11 10:25:19;;;;;;;0.40;0.40;;;18.10;99.50;;;;;;5090610;28;20211;-72
2022/11/11 10:28:15;;;;;;;0.40;0.40;;;18.10;99.60;;;;;;5088648;28;20197;-69
2022/11/11 10:31:09;;;;;;;0.40;0.40;;;18.10;99.40;;;;;;5081935;28;20219;-68
2022/11/11 10:34:02;;;;;;;0.40;0.40;;;18.10;99.30;;;;;;5094373;22;20326;-66
2022/11/11 10:36:56;;;;;;;0.40;0.40;;;18.20;99.60;;;;;;5070382;28;20643;-66
2022/11/11 10:39:55;;;;;;;0.40;0.40;;;18.20;99.60;;;;;;5063336;28;20202;-66
2022/11/11 10:42:43;;;;;;;0.40;0.40;;;18.20;99.60;;;;;;5072279;28;20279;-66
2022/11/11 10:45:39;;;;;;;0.40;0.40;;;18.20;99.50;;;;;;5076068;28;20299;-66
2022/11/11 10:48:38;;;;;;;0.40;0.40;;;18.20;99.30;;;;;;5072257;28;20197;-66
2022/11/11 10:51:36;;;;;;;0.40;0.40;;;18.20;99.50;;;;;;5076713;28;20215;-66
2022/11/11 10:54:33;;;;;;;0.40;0.40;;;18.20;99.50;;;;;;5078162;28;20800;-66
2022/11/11 10:57:34;;;;;;;0.40;0.40;;;18.20;99.40;;;;;;5066831;28;20223;-66
2022/11/11 11:00:22;;;;;;;0.40;0.40;;;18.20;99.50;;;;;;5077282;28;20654;-66
2022/11/11 11:03:16;;;;;;;0.40;0.40;;;18.20;99.50;;;;;;5061567;28;20275;-66
2022/11/11 11:06:10;;;;;;;0.40;0.40;;;18.30;99.60;;;;;;5077499;28;20200;-66
2022/11/11 11:09:06;;;;;;;0.40;0.40;;;18.20;99.50;;;;;;5079921;28;20693;-66
2022/11/11 11:11:59;;;;;;;0.40;0.40;;;18.20;99.50;;;;;;5074217;28;20260;-66
2022/11/11 11:14:51;;;;;;;0.40;0.40;;;18.20;99.50;;;;;;5077012;28;20221;-66
2022/11/11 11:17:45;;;;;;;0.40;0.40;;;18.30;99.60;;;;;;5078212;28;20229;-66
2022/11/11 11:20:33;;;;;;;0.40;0.40;;;18.30;99.60;;;;;;5070821;28;20283;-66
2022/11/11 11:23:35;;;;;;;0.40;0.40;;;18.30;99.50;;;;;;5059474;28;20328;-66
2022/11/11 11:26:23;;;;;;;0.40;0.40;;;18.30;99.60;;;;;;5073213;28;20204;-66
2022/11/11 11:29:13;;;;;;;0.40;0.40;;;18.30;99.50;;;;;;5059121;28;20232;-64
2022/11/11 11:32:14;;;;;;;0.40;0.40;;;18.30;99.60;;;;;;5060488;28;20724;-67
2022/11/11 11:35:02;;;;;;;0.40;0.40;;;18.30;99.50;;;;;;5057576;28;20713;-66
2022/11/11 11:37:51;;;;;;;0.40;0.40;;;18.30;99.50;;;;;;5072256;28;20250;-66
2022/11/11 11:40:50;;;;;;;0.60;0.60;;;18.30;99.50;;;;;;5066895;28;20288;-66
2022/11/11 11:43:41;;;;;;;0.40;0.40;;;18.30;99.30;;;;;;5060030;28;20197;-67
2022/11/11 11:46:37;;;;;;;0.40;0.40;;;18.40;99.60;;;;;;5065794;28;20227;-65
2022/11/11 11:49:35;;;;;;;0.40;0.40;;;18.30;99.50;;;;;;5061864;28;20200;-65
2022/11/11 11:52:31;;;;;;;0.40;0.40;;;18.30;99.50;;;;;;5076753;28;20342;-65
2022/11/11 11:55:22;;;;;;;0.40;0.40;;;18.30;99.80;;;;;;5062971;28;20389;-65
2022/11/11 11:58:29;;;;;;;0.40;0.40;;;18.30;99.50;;;;;;5076123;28;20211;-66
2022/11/11 12:01:24;;;;;;;0.40;0.40;;;18.30;99.50;;;;;;5071469;28;20203;-66
2022/11/11 12:04:43;;;;;;;0.40;0.40;;;18.40;99.50;;;;;;5062039;28;20339;-65
2022/11/11 12:07:47;;;;;;;0.40;0.40;;;18.30;99.50;;;;;;5054475;28;20337;-65
2022/11/11 12:10:42;;;;;;;0.40;0.40;;;18.30;99.50;;;;;;5075308;28;20200;-65
2022/11/11 12:13:40;;;;;;;0.40;0.40;;;18.30;99.50;;;;;;5063307;28;20241;-66
2022/11/11 12:16:35;;;;;;;0.40;0.40;;;18.30;99.50;;;;;;5074544;28;20578;-67
2022/11/11 12:19:44;;;;;;;0.40;0.40;;;18.30;99.50;;;;;;5062109;28;20204;-65
2022/11/11 12:22:41;;;;;;;0.40;0.40;;;18.40;99.60;;;;;;5075334;28;20200;-65
2022/11/11 12:25:43;;;;;;;0.40;0.40;;;18.30;99.50;;;;;;5062547;28;20710;-65
2022/11/11 12:28:48;;;;;;;0.40;0.40;;;18.40;99.50;;;;;;5056323;28;20232;-66
2022/11/11 12:31:52;;;;;;;0.40;0.40;;;18.40;99.60;;;;;;5056207;28;20200;-65
2022/11/11 12:35:19;;;;;;;0.40;0.40;;;18.40;99.50;;;;;;5076267;28;21842;-65
2022/11/11 12:38:31;;;;;;;1.30;1.30;;;18.40;99.50;;;;;;5065792;28;20244;-66
2022/11/11 12:41:27;;;;;;;0.40;0.40;;;18.40;99.50;;;;;;5078227;28;20280;-65
2022/11/11 12:44:16;;;;;;;0.50;0.50;;;18.40;99.50;;;;;;5074938;28;20657;-65
2022/11/11 12:47:22;;;;;;;0.40;0.40;;;18.40;99.50;;;;;;5074543;28;20334;-65
2022/11/11 12:50:21;;;;;;;0.40;0.40;;;18.40;99.50;;;;;;5075380;28;20338;-65
2022/11/11 12:53:21;;;;;;;0.40;0.40;;;18.40;99.60;;;;;;5063002;28;20308;-65
2022/11/11 12:56:21;;;;;;;0.40;0.40;;;18.40;99.50;;;;;;5075181;28;20199;-65
2022/11/11 12:59:17;;;;;;;0.40;0.40;;;18.40;99.50;;;;;;5073480;28;20207;-65
2022/11/11 13:02:25;;;;;;;0.40;0.40;;;18.40;99.50;;;;;;5074777;28;20280;-65
2022/11/11 13:05:21;;;;;;;0.40;0.40;;;18.40;99.50;;;;;;5061432;28;20340;-66
2022/11/11 13:08:44;;;;;;;0.40;0.40;;;18.40;99.50;;;;;;5074092;28;20276;-66
2022/11/11 13:11:45;;;;;;;0.40;0.40;;;18.40;99.50;;;;;;5059303;28;20211;-65
2022/11/11 13:14:46;;;;;;;0.40;0.40;;;18.40;99.50;;;;;;5073178;28;20343;-65
2022/11/11 13:17:34;;;;;;;0.40;0.40;;;18.40;99.50;;;;;;5059169;28;20231;-65
2022/11/11 13:20:39;;;;;;;0.40;0.40;;;18.40;99.40;;;;;;5072591;28;20219;-65
2022/11/11 13:23:29;;;;;;;0.40;0.40;;;18.50;99.50;;;;;;5058099;28;20208;-64
2022/11/11 13:26:27;;;;;;;0.40;0.40;;;18.40;99.40;;;;;;5072332;28;20565;-66
2022/11/11 13:29:49;;;;;;;0.40;0.40;;;18.40;99.40;;;;;;5073734;28;20231;-66
2022/11/11 13:32:41;;;;;;;0.40;0.40;;;18.40;99.40;;;;;;5078904;28;20201;-66
2022/11/11 13:35:35;;;;;;;0.40;0.40;;;18.40;99.40;;;;;;5058302;28;20307;-65
2022/11/11 13:38:30;;;;;;;0.40;0.40;;;18.40;99.50;;;;;;5072418;28;20673;-66
2022/11/11 13:41:24;;;;;;;0.40;0.40;;;18.40;99.40;;;;;;5066971;28;20338;-66
2022/11/11 13:44:21;;;;;;;0.40;0.40;;;18.40;99.40;;;;;;5065365;28;20619;-65
2022/11/11 13:47:18;;;;;;;0.40;0.40;;;18.40;99.40;;;;;;5073040;28;20232;-65
2022/11/11 13:50:12;;;;;;;0.40;0.40;;;18.50;99.40;;;;;;5073623;28;20208;-65
2022/11/11 13:53:02;;;;;;;0.40;0.40;;;18.40;99.40;;;;;;5072205;28;20224;-66
2022/11/11 13:55:54;;;;;;;0.40;0.40;;;18.50;99.40;;;;;;5073057;28;20314;-66
2022/11/11 13:58:48;;;;;;;0.40;0.40;;;18.50;99.40;;;;;;5054380;28;20201;-66
2022/11/11 14:01:39;;;;;;;0.40;0.40;;;18.50;99.40;;;;;;5054527;28;20767;-66
2022/11/11 14:04:31;;;;;;;0.40;0.40;;;18.40;99.30;;;;;;5053983;28;20709;-65
2022/11/11 14:07:50;;;;;;;0.40;0.40;;;18.40;99.30;;;;;;5052171;28;20283;-66
2022/11/11 14:10:54;;;;;;;0.40;0.40;;;18.40;99.30;;;;;;5053788;28;20201;-66
2022/11/11 14:13:42;;;;;;;0.40;0.40;;;18.40;99.90;;;;;;5054228;28;20209;-66
2022/11/11 14:17:00;;;;;;;0.40;0.40;;;18.30;99.30;;;;;;5053315;28;20201;-66
2022/11/11 14:19:48;;;;;;;0.40;0.40;;;18.40;99.30;;;;;;5051669;28;20208;-66
2022/11/11 14:22:36;;;;;;;0.40;0.40;;;18.40;99.30;;;;;;5054693;28;20277;-66
2022/11/11 14:25:26;;;;;;;0.40;0.40;;;18.30;99.30;;;;;;5058630;28;20276;-65
2022/11/11 14:28:26;;;;;;;0.40;0.40;;;18.30;99.30;;;;;;5055672;28;20211;-65
2022/11/11 14:32:01;;;;;;;0.40;0.40;;;18.40;99.30;;;;;;5055191;28;20251;-65
2022/11/11 14:35:00;;;;;;;0.40;0.40;;;18.30;99.30;;;;;;5035974;28;20225;-64
2022/11/11 14:38:00;;;;;;;0.40;0.40;;;18.30;99.30;;;;;;5052725;28;20204;-65
2022/11/11 14:40:48;;;;;;;0.40;0.40;;;18.30;99.30;;;;;;5052916;28;20720;-66
2022/11/11 14:43:39;;;;;;;0.40;0.40;;;18.30;99.30;;;;;;5051827;28;20583;-65
2022/11/11 14:46:28;;;;;;;0.40;0.40;;;18.30;99.30;;;;;;5053173;28;20208;-66
2022/11/11 14:49:47;;;;;;;0.40;0.40;;;18.30;99.40;;;;;;5052857;28;20639;-66
2022/11/11 14:52:38;;;;;;;0.40;0.40;;;18.30;99.40;;;;;;5051926;28;20194;-65
2022/11/11 14:55:29;;;;;;;0.40;0.40;;;18.30;99.30;;;;;;5053383;28;20221;-65
2022/11/11 14:58:20;;;;;;;0.40;0.40;;;18.30;99.30;;;;;;5071603;28;20758;-66
2022/11/11 15:01:16;;;;;;;0.40;0.40;;;18.30;99.30;;;;;;5073306;28;20203;-66
2022/11/11 15:04:04;;;;;;;0.40;0.40;;;18.20;99.30;;;;;;5070956;28;20221;-65
2022/11/11 15:06:58;;;;;;;0.40;0.40;;;18.20;99.30;;;;;;5071911;28;20601;-65
2022/11/11 15:09:59;;;;;;;0.40;0.40;;;18.20;99.30;;;;;;5070931;28;20204;-66
2022/11/11 15:13:11;;;;;;;0.40;0.40;;;18.20;99.30;;;;;;5071168;28;20257;-65
2022/11/11 15:16:08;;;;;;;0.40;0.40;;;18.20;99.30;;;;;;5066852;28;20266;-65
2022/11/11 15:19:13;;;;;;;0.40;0.40;;;18.20;99.30;;;;;;5072523;28;20337;-66
2022/11/11 15:22:12;;;;;;;0.40;0.40;;;18.20;99.30;;;;;;5075456;28;20203;-64
2022/11/11 15:25:14;;;;;;;0.40;0.40;;;18.10;99.20;;;;;;5073707;28;20262;-66
2022/11/11 15:28:11;;;;;;;0.40;0.40;;;18.10;99.20;;;;;;5075626;28;20274;-66
2022/11/11 15:31:11;;;;;;;0.40;0.40;;;18.10;99.30;;;;;;5075888;28;20204;-65
2022/11/11 15:34:18;;;;;;;0.40;0.40;;;18.10;99.30;;;;;;5076526;28;20811;-65
2022/11/11 15:37:11;;;;;;;0.40;0.40;;;18.10;99.20;;;;;;5075534;28;20205;-65
2022/11/11 15:39:59;;;;;;;0.40;0.40;;;18.10;99.20;;;;;;5074800;28;20204;-66
2022/11/11 15:42:48;;;;;;;0.40;0.40;;;18.10;99.30;;;;;;5075970;28;20197;-65
2022/11/11 15:45:37;;;;;;;0.40;0.40;;;18.10;99.30;;;;;;5076135;28;20216;-65
2022/11/11 15:48:29;;;;;;;0.40;0.40;;;18.10;99.20;;;;;;5076322;28;20641;-66
2022/11/11 15:51:28;;;;;;;0.40;0.40;;;18.10;99.20;;;;;;5075456;28;20197;-68
2022/11/11 15:54:21;;;;;;;0.40;0.40;;;18.10;99.30;;;;;;5075305;28;20573;-66
2022/11/11 15:57:21;;;;;;;0.40;0.40;;;18.10;99.20;;;;;;5075929;28;20196;-66
2022/11/11 16:00:26;;;;;;;0.40;0.40;;;18.10;99.30;;;;;;5076504;28;20193;-68
2022/11/11 16:03:17;;;;;;;0.40;0.40;;;18.00;99.30;;;;;;5077011;28;20299;-65
2022/11/11 16:06:09;;;;;;;0.40;0.40;;;18.00;99.20;;;;;;5076428;28;20208;-66
2022/11/11 16:08:58;;;;;;;0.40;0.40;;;18.00;99.20;;;;;;5075483;28;20242;-65
2022/11/11 16:11:46;;;;;;;0.40;0.40;;;18.00;99.20;;;;;;5075191;28;20696;-65
2022/11/11 16:14:40;;;;;;;0.40;0.40;;;18.00;99.20;;;;;;5074969;28;20260;-65
2022/11/11 16:17:32;;;;;;;0.40;0.40;;;18.00;99.30;;;;;;5075948;28;20200;-65
2022/11/11 16:20:25;;;;;;;0.40;0.40;;;18.00;99.30;;;;;;5076923;28;20193;-65